createdAt,value
2023-01-26T00:00:16.848Z,-0.52
2023-01-26T00:02:45.159Z,-0.55
2023-01-26T00:05:13.550Z,-0.53
2023-01-26T00:07:45.376Z,-0.52
2023-01-26T00:10:15.025Z,-0.50
2023-01-26T00:12:44.705Z,-0.50
2023-01-26T00:15:13.059Z,-0.51
2023-01-26T00:17:41.493Z,-0.51
2023-01-26T00:20:11.770Z,-0.50
2023-01-26T00:22:40.341Z,-0.48
2023-01-26T00:25:09.305Z,-0.46
2023-01-26T00:27:37.647Z,-0.45
2023-01-26T00:30:11.957Z,-0.43
2023-01-26T00:32:40.640Z,-0.42
2023-01-26T00:35:10.648Z,-0.41
2023-01-26T00:37:38.989Z,-0.40
2023-01-26T00:40:08.044Z,-0.39
2023-01-26T00:42:36.598Z,-0.38
2023-01-26T00:45:05.896Z,-0.36
2023-01-26T00:47:37.884Z,-0.38
2023-01-26T00:50:11.385Z,-0.36
2023-01-26T00:52:40.412Z,-0.35
2023-01-26T00:55:09.442Z,-0.36
2023-01-26T00:57:37.793Z,-0.34
2023-01-26T01:00:07.719Z,-0.33
2023-01-26T01:02:37.485Z,-0.32
2023-01-26T01:05:06.504Z,-0.31
2023-01-26T01:07:37.671Z,-0.32
2023-01-26T01:10:08.637Z,-0.32
2023-01-26T01:12:37.998Z,-0.32
2023-01-26T01:15:07.688Z,-0.30
2023-01-26T01:17:37.399Z,-0.29
2023-01-26T01:20:07.388Z,-0.27
2023-01-26T01:22:38.676Z,-0.28
2023-01-26T01:25:09.429Z,-0.30
2023-01-26T01:27:37.985Z,-0.30
2023-01-26T01:30:11.155Z,-0.32
2023-01-26T01:32:41.040Z,-0.30
2023-01-26T01:35:10.043Z,-0.30
2023-01-26T01:37:41.062Z,-0.30
2023-01-26T01:40:13.255Z,-0.30
2023-01-26T01:42:51.682Z,-0.30
2023-01-26T01:45:42.263Z,-0.31
2023-01-26T01:48:19.730Z,-0.31
2023-01-26T01:50:50.938Z,-0.31
2023-01-26T01:53:25.540Z,-0.31
2023-01-26T01:55:59.102Z,-0.30
2023-01-26T01:58:30.583Z,-0.29
2023-01-26T02:00:59.935Z,-0.30
2023-01-26T02:03:31.435Z,-0.28
2023-01-26T02:06:06.735Z,-0.28
2023-01-26T02:08:39.244Z,-0.28
2023-01-26T02:11:10.543Z,-0.27
2023-01-26T02:13:41.893Z,-0.26
2023-01-26T02:16:10.311Z,-0.27
2023-01-26T02:18:40.125Z,-0.28
2023-01-26T02:21:11.198Z,-0.30
2023-01-26T02:23:51.812Z,-0.29
2023-01-26T02:26:23.663Z,-0.30
2023-01-26T02:28:56.773Z,-0.29
2023-01-26T02:31:26.487Z,-0.27
2023-01-26T02:33:56.589Z,-0.26
2023-01-26T02:36:32.752Z,-0.27
2023-01-26T02:39:19.216Z,-0.28
2023-01-26T02:42:10.619Z,-0.27
2023-01-26T02:44:42.868Z,-0.28
2023-01-26T02:47:14.573Z,-0.27
2023-01-26T02:49:48.422Z,-0.26
2023-01-26T02:52:20.788Z,-0.27
2023-01-26T02:55:13.453Z,-0.27
2023-01-26T02:57:43.485Z,-0.28
2023-01-26T03:00:14.077Z,-0.30
2023-01-26T03:02:45.080Z,-0.29
2023-01-26T03:05:13.462Z,-0.27
2023-01-26T03:07:44.340Z,-0.29
2023-01-26T03:10:13.900Z,-0.29
2023-01-26T03:12:43.771Z,-0.28
2023-01-26T03:15:29.932Z,-0.26
2023-01-26T03:18:23.891Z,-0.27
2023-01-26T03:21:10.030Z,-0.27
2023-01-26T03:23:56.135Z,-0.26
2023-01-26T03:26:46.516Z,-0.26
2023-01-26T03:29:16.355Z,-0.26
2023-01-26T03:31:45.378Z,-0.25
2023-01-26T03:34:13.860Z,-0.25
2023-01-26T03:36:43.384Z,-0.24
2023-01-26T03:39:35.590Z,-0.23
2023-01-26T03:42:23.372Z,-0.23
2023-01-26T03:45:10.963Z,-0.22
2023-01-26T03:47:59.693Z,-0.19
2023-01-26T03:50:45.978Z,-0.18
2023-01-26T03:53:33.757Z,-0.16
2023-01-26T03:56:22.008Z,-0.17
2023-01-26T03:58:55.026Z,-0.16
2023-01-26T04:01:28.159Z,-0.17
2023-01-26T04:04:17.449Z,-0.18
2023-01-26T04:07:07.616Z,-0.18
2023-01-26T04:09:39.474Z,-0.19
2023-01-26T04:12:10.320Z,-0.19
2023-01-26T04:15:03.050Z,-0.19
2023-01-26T04:17:52.345Z,-0.18
2023-01-26T04:20:38.946Z,-0.19
2023-01-26T04:23:07.323Z,-0.19
2023-01-26T04:25:36.461Z,-0.17
2023-01-26T04:28:05.013Z,-0.15
2023-01-26T04:30:34.522Z,-0.17
2023-01-26T04:33:05.346Z,-0.19
2023-01-26T04:35:36.523Z,-0.17
2023-01-26T04:38:05.150Z,-0.18
2023-01-26T04:40:33.766Z,-0.18
2023-01-26T04:43:02.091Z,-0.19
2023-01-26T04:45:37.599Z,-0.18
2023-01-26T04:48:12.035Z,-0.17
2023-01-26T04:50:40.399Z,-0.17
2023-01-26T04:53:09.961Z,-0.20
2023-01-26T04:55:38.857Z,-0.19
2023-01-26T04:58:09.212Z,-0.19
2023-01-26T05:00:37.650Z,-0.19
2023-01-26T05:03:10.326Z,-0.19
2023-01-26T05:05:40.127Z,-0.20
2023-01-26T05:08:08.490Z,-0.20
2023-01-26T05:10:36.909Z,-0.18
2023-01-26T05:13:20.176Z,-0.18
2023-01-26T05:16:07.854Z,-0.16
2023-01-26T05:19:07.022Z,-0.18
2023-01-26T05:21:58.455Z,-0.19
2023-01-26T05:24:28.676Z,-0.19
2023-01-26T05:27:24.761Z,-0.19
2023-01-26T05:30:00.992Z,-0.18
2023-01-26T05:32:32.055Z,-0.18
2023-01-26T05:35:01.851Z,-0.19
2023-01-26T05:37:31.759Z,-0.18
2023-01-26T05:40:00.449Z,-0.19
2023-01-26T05:42:29.072Z,-0.18
2023-01-26T05:45:20.968Z,-0.17
2023-01-26T05:47:51.649Z,-0.17
2023-01-26T05:50:21.950Z,-0.15
2023-01-26T05:53:10.319Z,-0.16
2023-01-26T05:55:39.416Z,-0.17
2023-01-26T05:58:07.820Z,-0.16
2023-01-26T06:00:36.178Z,-0.17
2023-01-26T06:03:10.393Z,-0.15
2023-01-26T06:05:40.097Z,-0.16
2023-01-26T06:08:22.819Z,-0.15
2023-01-26T06:11:01.560Z,-0.14
2023-01-26T06:13:48.745Z,-0.13
2023-01-26T06:16:24.951Z,-0.13
2023-01-26T06:18:59.420Z,-0.12
2023-01-26T06:21:29.284Z,-0.15
2023-01-26T06:23:57.688Z,-0.14
2023-01-26T06:26:26.817Z,-0.14
2023-01-26T06:28:57.297Z,-0.13
2023-01-26T06:31:29.694Z,-0.12
2023-01-26T06:34:00.035Z,-0.11
2023-01-26T06:36:30.343Z,-0.13
2023-01-26T06:39:00.987Z,-0.13
2023-01-26T06:41:32.866Z,-0.13
2023-01-26T06:44:01.259Z,-0.13
2023-01-26T06:46:29.626Z,-0.14
2023-01-26T06:48:57.943Z,-0.12
2023-01-26T06:51:47.272Z,-0.11
2023-01-26T06:54:16.647Z,-0.13
2023-01-26T06:57:20.366Z,-0.15
2023-01-26T06:59:51.509Z,-0.15
2023-01-26T07:02:34.589Z,-0.15
2023-01-26T07:05:02.997Z,-0.13
2023-01-26T07:07:32.663Z,-0.13
2023-01-26T07:10:01.087Z,-0.12
2023-01-26T07:12:39.530Z,-0.11
2023-01-26T07:15:09.035Z,-0.09
2023-01-26T07:17:37.387Z,-0.08
2023-01-26T07:20:07.173Z,-0.09
2023-01-26T07:22:36.856Z,-0.09
2023-01-26T07:25:05.498Z,-0.09
2023-01-26T07:27:33.815Z,-0.09
2023-01-26T07:30:02.156Z,-0.07
2023-01-26T07:32:30.542Z,-0.06
2023-01-26T07:34:58.872Z,-0.07
2023-01-26T07:37:28.881Z,-0.08
2023-01-26T07:39:58.612Z,-0.05
2023-01-26T07:42:26.905Z,-0.03
2023-01-26T07:45:19.905Z,-0.01
2023-01-26T07:47:48.289Z,0.00
2023-01-26T07:50:18.365Z,0.02
2023-01-26T07:52:46.688Z,0.03
2023-01-26T07:55:16.582Z,0.04
2023-01-26T07:57:44.962Z,0.04
2023-01-26T08:00:14.284Z,0.03
2023-01-26T08:02:45.790Z,0.05
2023-01-26T08:05:14.169Z,0.08
2023-01-26T08:07:45.254Z,0.10
2023-01-26T08:10:14.661Z,0.11
2023-01-26T08:12:44.443Z,0.12
2023-01-26T08:15:13.343Z,0.14
2023-01-26T08:17:41.723Z,0.14
2023-01-26T08:20:12.339Z,0.16
2023-01-26T08:22:40.917Z,0.19
2023-01-26T08:25:09.924Z,0.20
2023-01-26T08:27:38.263Z,0.24
2023-01-26T08:30:10.164Z,0.26
2023-01-26T08:32:38.893Z,0.28
2023-01-26T08:35:08.163Z,0.30
2023-01-26T08:37:36.502Z,0.33
2023-01-26T08:40:05.315Z,0.35
2023-01-26T08:42:33.649Z,0.36
2023-01-26T08:45:01.971Z,0.37
2023-01-26T08:47:31.747Z,0.38
2023-01-26T08:50:00.100Z,0.40
2023-01-26T08:52:31.219Z,0.41
2023-01-26T08:55:00.531Z,0.40
2023-01-26T08:57:28.919Z,0.39
2023-01-26T08:59:57.313Z,0.39
2023-01-26T09:02:25.851Z,0.40
2023-01-26T09:04:55.570Z,0.42
2023-01-26T09:07:23.929Z,0.44
2023-01-26T09:09:53.458Z,0.45
2023-01-26T09:12:24.923Z,0.49
2023-01-26T09:14:53.229Z,0.50
2023-01-26T09:17:29.490Z,0.54
2023-01-26T09:19:59.202Z,0.53
2023-01-26T09:22:28.014Z,0.55
2023-01-26T09:24:56.344Z,0.52
2023-01-26T09:27:24.908Z,0.53
2023-01-26T09:30:00.595Z,0.52
2023-01-26T09:32:29.885Z,0.51
2023-01-26T09:34:59.776Z,0.52
2023-01-26T09:37:28.085Z,0.52
2023-01-26T09:39:56.468Z,0.54
2023-01-26T09:42:36.106Z,0.56
2023-01-26T09:45:18.156Z,0.55
2023-01-26T09:48:00.983Z,0.55
2023-01-26T09:50:36.422Z,0.56
2023-01-26T09:53:13.915Z,0.57
2023-01-26T09:55:43.151Z,0.60
2023-01-26T09:58:16.825Z,0.62
2023-01-26T10:00:48.797Z,0.64
2023-01-26T10:03:28.018Z,0.68
2023-01-26T10:06:05.118Z,0.70
2023-01-26T10:09:07.242Z,0.72
2023-01-26T10:11:40.423Z,0.72
2023-01-26T10:14:17.115Z,0.72
2023-01-26T10:16:48.228Z,0.72
2023-01-26T10:19:22.237Z,0.72
2023-01-26T10:21:54.050Z,0.73
2023-01-26T10:24:24.872Z,0.74
2023-01-26T10:26:57.477Z,0.76
2023-01-26T10:29:25.889Z,0.78
2023-01-26T10:31:55.181Z,0.79
2023-01-26T10:34:26.068Z,0.81
2023-01-26T10:37:03.199Z,0.83
2023-01-26T10:39:32.898Z,0.83
2023-01-26T10:42:05.358Z,0.83
2023-01-26T10:44:39.197Z,0.83
2023-01-26T10:47:18.378Z,0.85
2023-01-26T10:49:47.029Z,0.85
2023-01-26T10:52:21.662Z,0.88
2023-01-26T10:54:51.110Z,0.91
2023-01-26T10:57:25.483Z,0.95
2023-01-26T10:59:57.677Z,0.98
2023-01-26T11:02:28.761Z,1.01
2023-01-26T11:05:20.974Z,1.02
2023-01-26T11:07:54.188Z,1.03
2023-01-26T11:10:27.035Z,1.03
2023-01-26T11:13:16.522Z,1.06
2023-01-26T11:15:47.868Z,1.08
2023-01-26T11:18:27.505Z,1.10
2023-01-26T11:21:00.548Z,1.11
2023-01-26T11:23:53.202Z,1.14
2023-01-26T11:26:55.367Z,1.15
2023-01-26T11:29:42.695Z,1.17
2023-01-26T11:32:23.379Z,1.18
2023-01-26T11:35:04.026Z,1.16
2023-01-26T11:37:40.355Z,1.12
2023-01-26T11:40:24.295Z,1.13
2023-01-26T11:43:08.561Z,1.13
2023-01-26T11:45:47.877Z,1.14
2023-01-26T11:48:25.929Z,1.14
2023-01-26T11:50:58.802Z,1.14
2023-01-26T11:53:54.484Z,1.15
2023-01-26T11:56:37.873Z,1.18
2023-01-26T11:59:14.300Z,1.20
2023-01-26T12:01:46.308Z,1.22
2023-01-26T12:04:19.989Z,1.24
2023-01-26T12:06:54.046Z,1.25
2023-01-26T12:09:32.675Z,1.26
2023-01-26T12:12:08.040Z,1.26
2023-01-26T12:14:43.539Z,1.28
2023-01-26T12:17:29.079Z,1.29
2023-01-26T12:20:05.495Z,1.30
2023-01-26T12:22:37.405Z,1.29
2023-01-26T12:25:22.068Z,1.29
2023-01-26T12:27:57.909Z,1.29
2023-01-26T12:30:35.563Z,1.29
2023-01-26T12:33:07.403Z,1.31
2023-01-26T12:35:57.122Z,1.33
2023-01-26T12:38:41.566Z,1.36
2023-01-26T12:41:19.958Z,1.37
2023-01-26T12:44:07.605Z,1.40
2023-01-26T12:46:45.124Z,1.42
2023-01-26T12:49:20.875Z,1.44
2023-01-26T12:51:56.329Z,1.43
2023-01-26T12:54:35.475Z,1.42
2023-01-26T12:57:07.638Z,1.43
2023-01-26T12:59:47.574Z,1.45
2023-01-26T13:02:29.338Z,1.47
2023-01-26T13:05:05.473Z,1.48
2023-01-26T13:07:42.328Z,1.49
2023-01-26T13:10:22.603Z,1.50
2023-01-26T13:12:55.269Z,1.51
2023-01-26T13:15:32.423Z,1.52
2023-01-26T13:18:02.127Z,1.53
2023-01-26T13:20:53.769Z,1.55
2023-01-26T13:23:43.185Z,1.57
2023-01-26T13:26:20.947Z,1.57
2023-01-26T13:28:50.820Z,1.57
2023-01-26T13:31:38.447Z,1.58
2023-01-26T13:34:16.055Z,1.58
2023-01-26T13:36:48.811Z,1.55
2023-01-26T13:39:27.328Z,1.56
2023-01-26T13:41:55.971Z,1.56
2023-01-26T13:44:31.831Z,1.57
2023-01-26T13:47:09.245Z,1.58
2023-01-26T13:49:39.842Z,1.59
2023-01-26T13:52:18.558Z,1.60
2023-01-26T13:54:51.395Z,1.62
2023-01-26T13:57:25.051Z,1.64
2023-01-26T13:59:56.328Z,1.65
2023-01-26T14:02:28.447Z,1.66
2023-01-26T14:04:58.132Z,1.65
2023-01-26T14:07:30.397Z,1.67
2023-01-26T14:10:02.110Z,1.67
2023-01-26T14:12:34.746Z,1.69
2023-01-26T14:15:05.895Z,1.71
2023-01-26T14:17:38.156Z,1.70
2023-01-26T14:20:20.299Z,1.72
2023-01-26T14:23:03.550Z,1.71
2023-01-26T14:25:32.119Z,1.72
2023-01-26T14:28:00.550Z,1.73
2023-01-26T14:30:31.112Z,1.74
2023-01-26T14:33:05.962Z,1.75
2023-01-26T14:35:38.270Z,1.78
2023-01-26T14:38:13.524Z,1.80
2023-01-26T14:40:45.842Z,1.83
2023-01-26T14:43:15.340Z,1.84
2023-01-26T14:45:49.420Z,1.83
2023-01-26T14:48:23.285Z,1.86
2023-01-26T14:50:51.929Z,1.86
2023-01-26T14:53:23.862Z,1.87
2023-01-26T14:55:54.172Z,1.89
2023-01-26T14:58:25.489Z,1.90
2023-01-26T15:00:54.886Z,1.90
2023-01-26T15:03:28.736Z,1.91
2023-01-26T15:06:18.843Z,1.94
2023-01-26T15:08:59.381Z,1.97
2023-01-26T15:11:53.316Z,1.99
2023-01-26T15:14:38.184Z,2.02
2023-01-26T15:17:07.188Z,2.04
2023-01-26T15:19:42.877Z,2.06
2023-01-26T15:22:31.887Z,2.09
2023-01-26T15:25:02.981Z,2.11
2023-01-26T15:27:32.873Z,2.13
2023-01-26T15:30:04.751Z,2.16
2023-01-26T15:32:39.333Z,2.18
2023-01-26T15:35:20.949Z,2.20
2023-01-26T15:37:49.998Z,2.22
2023-01-26T15:40:18.886Z,2.24
2023-01-26T15:42:47.298Z,2.25
2023-01-26T15:45:24.452Z,2.27
2023-01-26T15:47:52.864Z,2.30
2023-01-26T15:50:28.554Z,2.31
2023-01-26T15:52:56.962Z,2.34
2023-01-26T15:55:29.127Z,2.36
2023-01-26T15:57:57.652Z,2.36
2023-01-26T16:00:26.345Z,2.38
2023-01-26T16:02:54.689Z,2.41
2023-01-26T16:05:25.363Z,2.42
2023-01-26T16:07:55.034Z,2.44
2023-01-26T16:10:23.370Z,2.45
2023-01-26T16:12:51.797Z,2.47
2023-01-26T16:15:29.492Z,2.47
2023-01-26T16:17:57.853Z,2.50
2023-01-26T16:20:26.184Z,2.52
2023-01-26T16:22:55.909Z,2.53
2023-01-26T16:25:26.718Z,2.54
2023-01-26T16:27:55.664Z,2.55
2023-01-26T16:30:24.323Z,2.57
2023-01-26T16:32:53.350Z,2.57
2023-01-26T16:35:23.572Z,2.59
2023-01-26T16:37:52.243Z,2.60
2023-01-26T16:40:21.985Z,2.61
2023-01-26T16:42:53.815Z,2.62
2023-01-26T16:45:24.261Z,2.64
2023-01-26T16:47:55.733Z,2.65
2023-01-26T16:50:25.064Z,2.67
2023-01-26T16:52:54.113Z,2.67
2023-01-26T16:55:23.850Z,2.68
2023-01-26T16:57:52.185Z,2.69
2023-01-26T17:00:21.871Z,2.71
2023-01-26T17:02:52.059Z,2.72
2023-01-26T17:05:22.365Z,2.72
2023-01-26T17:07:54.030Z,2.74
2023-01-26T17:10:24.104Z,2.75
2023-01-26T17:12:52.870Z,2.77
2023-01-26T17:15:25.845Z,2.78
2023-01-26T17:17:55.031Z,2.80
2023-01-26T17:20:23.491Z,2.81
2023-01-26T17:22:51.953Z,2.84
2023-01-26T17:25:20.348Z,2.85
2023-01-26T17:27:50.095Z,2.87
2023-01-26T17:30:19.469Z,2.88
2023-01-26T17:32:47.965Z,2.90
2023-01-26T17:35:16.457Z,2.91
2023-01-26T17:37:44.872Z,2.94
2023-01-26T17:40:13.800Z,2.96
2023-01-26T17:42:42.144Z,2.97
2023-01-26T17:45:12.765Z,2.98
2023-01-26T17:47:41.314Z,3.00
2023-01-26T17:50:10.722Z,3.02
2023-01-26T17:52:39.091Z,3.04
2023-01-26T17:55:07.800Z,3.05
2023-01-26T17:57:36.231Z,3.06
2023-01-26T18:00:06.207Z,3.08
2023-01-26T18:02:39.356Z,3.09
2023-01-26T18:05:09.578Z,3.11
2023-01-26T18:07:38.005Z,3.13
2023-01-26T18:10:07.481Z,3.14
2023-01-26T18:12:37.637Z,3.16
2023-01-26T18:15:06.988Z,3.16
2023-01-26T18:17:36.616Z,3.18
2023-01-26T18:20:07.258Z,3.20
2023-01-26T18:22:35.629Z,3.22
2023-01-26T18:25:04.226Z,3.23
2023-01-26T18:27:32.560Z,3.25
2023-01-26T18:30:00.890Z,3.28
2023-01-26T18:32:29.223Z,3.28
2023-01-26T18:34:57.574Z,3.30
2023-01-26T18:37:28.548Z,3.32
2023-01-26T18:39:56.889Z,3.32
2023-01-26T18:42:25.314Z,3.34
2023-01-26T18:45:00.747Z,3.34
2023-01-26T18:47:29.730Z,3.36
2023-01-26T18:49:58.340Z,3.36
2023-01-26T18:52:30.717Z,3.37
2023-01-26T18:54:59.315Z,3.39
2023-01-26T18:57:27.719Z,3.40
2023-01-26T18:59:56.056Z,3.42
2023-01-26T19:02:24.948Z,3.41
2023-01-26T19:04:55.006Z,3.44
2023-01-26T19:07:23.443Z,3.43
2023-01-26T19:09:53.168Z,3.45
2023-01-26T19:12:23.579Z,3.46
2023-01-26T19:14:51.909Z,3.48
2023-01-26T19:17:20.238Z,3.49
2023-01-26T19:19:48.658Z,3.50
2023-01-26T19:22:17.015Z,3.51
2023-01-26T19:24:45.753Z,3.51
2023-01-26T19:27:15.512Z,3.52
2023-01-26T19:29:43.862Z,3.52
2023-01-26T19:32:12.230Z,3.53
2023-01-26T19:34:40.593Z,3.53
2023-01-26T19:37:08.965Z,3.53
2023-01-26T19:39:37.561Z,3.54
2023-01-26T19:42:06.046Z,3.54
2023-01-26T19:44:35.825Z,3.54
2023-01-26T19:47:04.163Z,3.54
2023-01-26T19:49:32.713Z,3.55
2023-01-26T19:52:01.068Z,3.55
2023-01-26T19:54:29.451Z,3.56
2023-01-26T19:56:57.795Z,3.56
2023-01-26T19:59:27.376Z,3.56
2023-01-26T20:01:57.146Z,3.56
2023-01-26T20:04:25.540Z,3.55
2023-01-26T20:06:53.873Z,3.55
2023-01-26T20:09:22.241Z,3.56
2023-01-26T20:11:50.540Z,3.55
2023-01-26T20:14:18.903Z,3.54
2023-01-26T20:16:47.392Z,3.53
2023-01-26T20:19:17.341Z,3.53
2023-01-26T20:21:45.976Z,3.53
2023-01-26T20:24:15.393Z,3.54
2023-01-26T20:26:44.402Z,3.53
2023-01-26T20:29:13.900Z,3.52
2023-01-26T20:31:47.272Z,3.53
2023-01-26T20:34:24.338Z,3.53
2023-01-26T20:36:57.731Z,3.54
2023-01-26T20:39:27.995Z,3.55
2023-01-26T20:42:01.439Z,3.53
2023-01-26T20:44:29.846Z,3.53
2023-01-26T20:46:58.726Z,3.53
2023-01-26T20:49:28.408Z,3.52
2023-01-26T20:51:56.789Z,3.52
2023-01-26T20:54:25.150Z,3.51
2023-01-26T20:56:53.513Z,3.51
2023-01-26T20:59:22.630Z,3.52
2023-01-26T21:01:51.223Z,3.51
2023-01-26T21:04:19.773Z,3.52
2023-01-26T21:06:49.481Z,3.53
2023-01-26T21:09:18.462Z,3.54
2023-01-26T21:11:46.819Z,3.55
2023-01-26T21:14:15.387Z,3.55
2023-01-26T21:16:43.903Z,3.56
2023-01-26T21:19:12.285Z,3.56
2023-01-26T21:21:40.803Z,3.59
2023-01-26T21:24:11.490Z,3.60
2023-01-26T21:26:39.982Z,3.60
2023-01-26T21:29:08.817Z,3.61
2023-01-26T21:31:37.197Z,3.62
2023-01-26T21:34:05.549Z,3.63
2023-01-26T21:36:34.201Z,3.64
2023-01-26T21:39:03.318Z,3.66
2023-01-26T21:41:51.920Z,3.66
2023-01-26T21:44:22.359Z,3.67
2023-01-26T21:46:53.200Z,3.67
2023-01-26T21:49:22.199Z,3.68
2023-01-26T21:52:08.695Z,3.68
2023-01-26T21:54:37.096Z,3.70
2023-01-26T21:57:28.662Z,3.70
2023-01-26T21:59:56.262Z,3.72
2023-01-26T22:02:25.017Z,3.74
2023-01-26T22:04:53.577Z,3.73
2023-01-26T22:07:21.950Z,3.75
2023-01-26T22:09:50.309Z,3.76
2023-01-26T22:12:20.143Z,3.77
2023-01-26T22:14:48.506Z,3.77
2023-01-26T22:17:17.288Z,3.78
2023-01-26T22:19:45.583Z,3.79
2023-01-26T22:22:13.929Z,3.80
2023-01-26T22:24:42.305Z,3.79
2023-01-26T22:27:10.723Z,3.79
2023-01-26T22:29:40.432Z,3.79
2023-01-26T22:32:08.834Z,3.79
2023-01-26T22:34:37.204Z,3.79
2023-01-26T22:37:05.987Z,3.80
2023-01-26T22:39:34.342Z,3.78
2023-01-26T22:42:02.668Z,3.77
2023-01-26T22:44:31.028Z,3.79
2023-01-26T22:47:00.700Z,3.79
2023-01-26T22:49:29.825Z,3.79
2023-01-26T22:51:58.222Z,3.80
2023-01-26T22:54:27.704Z,3.80
2023-01-26T22:56:56.054Z,3.80
2023-01-26T22:59:24.412Z,3.81
2023-01-26T23:01:52.778Z,3.82
2023-01-26T23:04:22.484Z,3.82
2023-01-26T23:06:50.875Z,3.83
2023-01-26T23:09:19.429Z,3.83
2023-01-26T23:12:01.661Z,3.83
2023-01-26T23:14:30.659Z,3.83
2023-01-26T23:16:59.375Z,3.83
2023-01-26T23:19:30.083Z,3.84
2023-01-26T23:21:58.408Z,3.84
2023-01-26T23:24:26.894Z,3.84
2023-01-26T23:26:55.304Z,3.83
2023-01-26T23:29:25.808Z,3.83
2023-01-26T23:31:54.554Z,3.83
2023-01-26T23:34:23.110Z,3.84
2023-01-26T23:36:52.877Z,3.84
2023-01-26T23:39:21.304Z,3.82
2023-01-26T23:41:49.998Z,3.80
2023-01-26T23:44:18.346Z,3.78
2023-01-26T23:46:46.998Z,3.77
2023-01-26T23:49:15.692Z,3.77
2023-01-26T23:51:44.128Z,3.76
2023-01-26T23:54:14.066Z,3.76
2023-01-26T23:56:42.808Z,3.74
2023-01-26T23:59:11.178Z,3.73
